• Join FlightAware (Why Join?)
  • Login
  • US Flag 
03:03AM EDT


 

Airport Tracker/Info


-or-


 

Live Flight TrackerFlight Track Log ✈ N2574R ✈ 01-Dec-2013 ✈ KEYW - KBCT

Flight Track Log - Related Links

Times and Time Zones

All times are in EST time to prevent confusion due to time zone crossing. See the N2574R flight status page for this flight to view local times or setup timezone preferences in your user account.

Time Position Orientation Groundspeed Altitude Reporting Facility
EST Latitude Longitude Course Direction KTS MPH feet Rate Location/Type
01:52PM 24.8708 -80.7683 58° Northeast 110 127 2,700  Level Miami Center
01:53PM 24.8864 -80.7414 58° Northeast 110 127 2,700  Level Miami Center
01:54PM 24.9017 -80.7097 62° Northeast 105 121 2,700  Level Miami Center
01:55PM 24.9233 -80.6853 46° Northeast 105 121 2,700  Level Miami Center
01:55PM 24.9361 -80.6697 48° Northeast 109 125 2,800  Climbing Miami Center
01:56PM 24.9428 -80.6606 51° Northeast 105 121 2,700  Descending Miami Center
01:57PM 24.9578 -80.6383 53° Northeast 109 125 2,800  Climbing Miami Center
01:57PM 24.9622 -80.6361 24° Northeast 105 121 2,700  Descending Miami Center
01:58PM 24.9794 -80.6114 52° Northeast 111 128 2,800  Climbing Miami Center
01:58PM 24.9817 -80.6092 42° Northeast 105 121 2,700 -120 Descending Miami Center
01:59PM 25.0011 -80.5844 49° Northeast 110 127 2,700 60 Level Miami Center
01:59PM 25.0011 -80.5822 90° East 111 128 2,800  Climbing Miami Center
02:00PM 25.0206 -80.5575 49° Northeast 105 121 2,700  Descending Miami Center
02:00PM 25.0206 -80.5575 49° Northeast 110 127 2,800 60 Climbing Miami Center
02:01PM 25.0419 -80.5308 48° Northeast 110 127 2,800  Level Miami Center
02:01PM 25.0442 -80.5286 42° Northeast 111 128 2,800 -120 Level Miami Center
02:02PM 25.0675 -80.5108 35° Northeast 105 121 2,700  Descending Miami Center
02:02PM 25.0697 -80.5086 42° Northeast 111 128 2,800  Climbing Miami Center
02:03PM 25.0892 -80.4886 43° Northeast 105 121 2,700 60 Descending Miami Center
02:03PM 25.0953 -80.4864 18° North 110 127 2,900 60 Climbing Miami Center
02:04PM 25.1167 -80.4711 33° Northeast 105 121 2,800  Descending Miami Center
02:04PM 25.1189 -80.4689 42° Northeast 109 125 2,900 -120 Climbing Miami Center
02:05PM 25.1422 -80.4511 35° Northeast 105 121 2,700 -120 Descending Miami Center
02:05PM 25.1422 -80.4533 270° West 113 130 2,800  Climbing Miami Center
02:06PM 25.1697 -80.4314 36° Northeast 111 128 2,700  Descending Miami Center
02:07PM 25.1911 -80.4136 37° Northeast 110 127 2,800  Climbing Miami Center
02:08PM 25.2186 -80.3961 30° Northeast 110 127 2,800  Level Miami Center
02:09PM 25.2422 -80.3783 34° Northeast 109 125 2,800  Level Miami Center
02:10PM 25.2717 -80.3631 25° Northeast 111 128 2,800  Level Miami Center
02:11PM 25.2992 -80.3478 27° Northeast 111 128 2,800 -120 Level Miami Center
02:11PM 25.3119 -80.3389 32° Northeast 111 128 2,700 -120 Descending Miami Center
02:12PM 25.3478 -80.3261 18° North 109 125 2,700  Level Miami Center
02:13PM 25.3753 -80.3131 23° Northeast 107 123 2,700  Level Miami Center
02:14PM 25.4050 -80.2978 25° Northeast 110 127 2,700 -60 Level Miami Center
02:15PM 25.4344 -80.2850 21° North 111 128 2,600 -60 Descending Miami Center
02:16PM 25.4661 -80.2719 20° North 113 130 2,600 -60 Level Miami Center
02:17PM 25.4936 -80.2589 23° Northeast 112 129 2,500 -120 Descending Miami Center
02:18PM 25.5231 -80.2461 21° North 117 135 2,400 -180 Descending Miami Center
02:19PM 25.5547 -80.2331 20° North 119 137 2,200 -300 Descending Miami Center
02:20PM 25.5883 -80.2294 North 120 138 1,900 -360 Descending Miami Center
02:22PM 25.6261 -80.2211 11° North 119 137 1,500 -300 Descending Miami Center
02:23PM 25.6556 -80.2128 14° North 118 136 1,300 -180 Descending Miami Center
02:24PM 25.6828 -80.2019 20° North 112 129 1,200 -240 Descending Miami Center
02:25PM 25.7167 -80.1844 25° Northeast 111 128 900 -180 Descending Miami Center
02:26PM 25.7439 -80.1761 15° North 104 120 900  Level Miami Center
02:27PM 25.7756 -80.1678 13° North 108 124 1,000  Climbing Miami Center
02:28PM 25.8050 -80.1547 22° Northeast 105 121 1,000  Level Miami Center
02:29PM 25.8344 -80.1533 North 118 136 1,000  Level Miami Center
02:30PM 25.8678 -80.1494 North 118 136 1,000  Level Miami Center
02:31PM 25.8975 -80.1342 25° Northeast 109 125 1,000 -60 Level Miami Center
02:32PM 25.9228 -80.1186 29° Northeast 112 129 900 -60 Descending Miami Center
02:33PM 25.9606 -80.1128 North 115 132 900 -120 Level Miami Center
02:34PM 25.9919 -80.1114 North 122 140 700 -180 Descending Miami Center
02:35PM 26.0214 -80.1075 North 123 142 600 -60 Descending Miami Center
02:36PM 26.0589 -80.1017 North 112 129 600 -60 Level Miami Center
02:37PM 26.0906 -80.0978 North 117 135 500  Descending Miami Center
02:38PM 26.1197 -80.0939 North 110 127 600 60 Climbing Miami Center
02:39PM 26.1511 -80.0925 North 107 123 700 60 Climbing Miami Center
02:40PM 26.1825 -80.0886 North 113 130 800  Climbing Miami Center
02:41PM 26.2142 -80.0803 13° North 136 157 700 -60 Descending Miami Center
02:42PM 26.2456 -80.0789 North 115 132 700  Level Miami Center
02:43PM 26.2789 -80.0706 13° North 116 133 700  Level Miami Center
02:44PM 26.2808 -80.0867 278° West 99 114 800 -60 Climbing Miami Center
02:45PM 26.2575 -80.0931 194° South 82 94 600 -240 Descending Miami Center
02:47PM 26.3110 -80.0965 357° North  Level FlightAware Approximate
02:54PM 26.3667 -80.1000 24° Northeast  Level FlightAware Approximate
02:55PM 26.3785 -80.1077 24° Northeast  Level Estimated
02:56PM 26.3785 -80.1077 24° Northeast  Level Estimated
02:57PM 26.3785 -80.1077 24° Northeast  Level Estimated
02:58PM 26.3785 -80.1077 24° Northeast  Level Estimated